Camphill, Mississippi
Current Conditions -  °F | °C
As of 1:35 PM on Thursday 27 Nov 2014 (Local Time) from KCRX Reporting Station
Overcast Overcast  
Wind Chill: 38°   Ceiling: 3300
Heat Index: 43°   Visibility: NA
Dew Point: 28°   Wind: 8mph
Humidity: 57%   Direction: 350°N
Pressure: 30.44"   Gusts: 15mph
Location:  34.9572°N, 88.9195°W
Report Text: KCRX 271935Z AUTO 35007G13KT OVC033 06/M02 A3044 RMK AO2
Loading
Personal Weather Stations






























Interactive Weather Map New forecast layout! Learn more

10-Day Weather Forecast

Advertisements
Track Severe Weather on mobile